Time;durP1;ratioP1;P1;durP2;ratioP2;P2;SDS_P1;SDS_P2;PMS_P1;PMS_P2;Temp;Humidity;BMP_temperature;BMP_pressure;BME280_temperature;BME280_humidity;BME280_pressure;Samples;Min_cycle;Max_cycle;Signal;HPM_P1;HPM_P2
2021/01/03 00:01:29;;;;;;;133.50;69.70;;;;;;;3.91;95.25;100321.06;1739708;80;27198;-69
2021/01/03 00:03:55;;;;;;;118.90;65.67;;;;;;;3.97;94.92;100322.91;1742808;80;25620;-69
2021/01/03 00:06:21;;;;;;;143.43;71.10;;;;;;;4.04;94.74;100318.89;1744207;80;28313;-70
2021/01/03 00:08:48;;;;;;;123.07;68.52;;;;;;;3.89;94.64;100328.19;1742040;80;26739;-70
2021/01/03 00:11:14;;;;;;;137.80;66.00;;;;;;;3.80;95.16;100326.22;1741728;80;21612;-69
2021/01/03 00:13:40;;;;;;;131.57;69.67;;;;;;;3.81;95.36;100330.52;1744196;80;23777;-72
2021/01/03 00:16:05;;;;;;;133.63;67.87;;;;;;;3.86;95.16;100327.58;1738959;80;23406;-70
2021/01/03 00:18:31;;;;;;;131.22;68.55;;;;;;;3.92;94.82;100330.59;1739772;81;28317;-69
2021/01/03 00:20:57;;;;;;;128.20;70.60;;;;;;;3.85;94.79;100330.64;1733238;81;27090;-72
2021/01/03 00:23:23;;;;;;;131.35;70.57;;;;;;;3.79;95.04;100325.85;1738932;80;21629;-72
2021/01/03 00:25:49;;;;;;;138.17;68.57;;;;;;;3.71;95.13;100329.03;1741666;81;26245;-72
2021/01/03 00:28:14;;;;;;;120.22;65.52;;;;;;;3.62;95.77;100324.91;1736871;81;21222;-71
2021/01/03 00:30:41;;;;;;;126.22;65.83;;;;;;;3.57;96.03;100329.99;1751640;81;28876;-72
2021/01/03 00:33:07;;;;;;;124.17;59.33;;;;;;;3.52;96.28;100324.72;1737921;81;21219;-71
2021/01/03 00:35:34;;;;;;;123.40;64.20;;;;;;;3.52;96.41;100319.02;1738122;81;21828;-70
2021/01/03 00:38:05;;;;;;;133.27;64.63;;;;;;;3.52;96.29;100319.02;1736362;81;21558;-69
2021/01/03 00:40:31;;;;;;;121.07;66.72;;;;;;;3.56;96.00;100325.70;1737220;81;21159;-68
2021/01/03 00:42:57;;;;;;;131.43;63.90;;;;;;;3.60;95.75;100323.70;1736278;81;28422;-70
2021/01/03 00:45:23;;;;;;;120.17;62.70;;;;;;;3.63;95.49;100328.71;1732302;81;21198;-69
2021/01/03 00:47:49;;;;;;;135.63;67.70;;;;;;;3.53;95.69;100333.75;1741539;81;21859;-70
2021/01/03 00:50:15;;;;;;;124.30;67.32;;;;;;;3.49;96.07;100342.72;1735183;81;25903;-70
2021/01/03 00:52:41;;;;;;;129.07;62.95;;;;;;;3.51;96.20;100334.34;1730453;80;21222;-71
2021/01/03 00:55:08;;;;;;;122.50;63.87;;;;;;;3.59;95.94;100338.55;1738524;81;29154;-70
2021/01/03 00:57:34;;;;;;;130.27;62.43;;;;;;;3.65;95.70;100342.97;1713639;81;21552;-69
2021/01/03 00:59:59;;;;;;;122.30;65.92;;;;;;;3.65;95.58;100336.44;1735609;80;21184;-69
2021/01/03 01:02:25;;;;;;;130.33;67.53;;;;;;;3.76;95.36;100335.23;1732360;80;25269;-68
2021/01/03 01:04:51;;;;;;;131.83;66.43;;;;;;;3.88;94.40;100332.22;1734677;80;22818;-68
2021/01/03 01:07:17;;;;;;;128.30;62.78;;;;;;;3.73;94.74;100317.17;1736063;81;21206;-68
2021/01/03 01:09:43;;;;;;;120.37;68.70;;;;;;;3.74;94.99;100320.98;1736940;81;27262;-68
2021/01/03 01:12:09;;;;;;;142.47;67.10;;;;;;;3.67;94.77;100333.27;1739138;80;21711;-68
2021/01/03 01:14:34;;;;;;;128.93;65.67;;;;;;;3.53;95.16;100327.22;1742570;80;27235;-70
2021/01/03 01:17:00;;;;;;;123.10;65.37;;;;;;;3.54;95.05;100324.98;1741873;80;21022;-70
2021/01/03 01:19:26;;;;;;;127.70;64.82;;;;;;;3.54;95.02;100321.52;1729137;80;28379;-70
2021/01/03 01:21:52;;;;;;;124.72;65.35;;;;;;;3.47;95.08;100318.98;1738890;80;26654;-70
2021/01/03 01:24:17;;;;;;;135.60;66.28;;;;;;;3.37;95.49;100323.98;1729127;80;21391;-70
2021/01/03 01:26:43;;;;;;;126.60;64.97;;;;;;;3.27;95.93;100322.97;1738760;80;25493;-71
2021/01/03 01:29:09;;;;;;;138.23;67.93;;;;;;;3.30;95.97;100320.14;1735512;80;24752;-71
2021/01/03 01:31:34;;;;;;;121.50;65.52;;;;;;;3.19;96.26;100318.27;1730649;80;28307;-71
2021/01/03 01:34:00;;;;;;;124.87;63.78;;;;;;;3.10;96.80;100321.02;1737070;80;27184;-70
2021/01/03 01:36:26;;;;;;;130.52;66.30;;;;;;;3.04;96.95;100311.00;1730946;80;22013;-71
2021/01/03 01:38:52;;;;;;;123.93;62.93;;;;;;;3.05;97.13;100313.98;1726112;80;26248;-70
2021/01/03 01:41:18;;;;;;;128.20;60.07;;;;;;;3.04;97.17;100316.22;1731470;80;25607;-70
2021/01/03 01:43:44;;;;;;;113.65;62.95;;;;;;;3.03;97.24;100315.84;1738110;80;21242;-71
2021/01/03 01:46:30;;;;;;;128.00;63.30;;;;;;;3.12;96.83;100310.00;1736187;80;26304;-71
2021/01/03 01:48:56;;;;;;;123.13;59.30;;;;;;;3.09;96.60;100306.30;1731836;80;21233;-71
2021/01/03 01:51:29;;;;;;;121.87;58.03;;;;;;;3.07;96.66;100305.58;1735108;80;25266;-71
2021/01/03 01:54:00;;;;;;;126.80;63.15;;;;;;;3.06;96.82;100301.28;1733827;80;21209;-72
2021/01/03 01:56:59;;;;;;;127.00;63.08;;;;;;;3.01;96.80;100300.77;1723851;80;21826;-72
2021/01/03 01:59:54;;;;;;;113.77;61.40;;;;;;;2.94;96.94;100308.66;1727202;80;21227;-72
2021/01/03 02:02:59;;;;;;;120.45;59.65;;;;;;;2.91;97.05;100314.09;1723926;80;21372;-72
2021/01/03 02:05:48;;;;;;;125.85;61.48;;;;;;;2.80;97.30;100311.72;1732484;80;21245;-73
2021/01/03 02:08:31;;;;;;;114.70;57.95;;;;;;;2.91;97.18;100308.87;1735903;80;22186;-73
2021/01/03 02:10:57;;;;;;;122.60;60.70;;;;;;;2.96;96.76;100306.78;1736023;80;21193;-72
2021/01/03 02:13:40;;;;;;;119.67;59.00;;;;;;;2.92;96.65;100304.00;1730457;80;26775;-72
2021/01/03 02:16:12;;;;;;;115.30;60.15;;;;;;;2.91;96.65;100304.48;1722208;80;21162;-72
2021/01/03 02:18:39;;;;;;;124.55;61.02;;;;;;;2.85;96.75;100303.58;1710526;81;21189;-73
2021/01/03 02:21:16;;;;;;;122.30;58.00;;;;;;;2.81;97.68;100306.88;1715549;81;21669;-72
2021/01/03 02:23:56;;;;;;;118.55;57.83;;;;;;;2.87;97.44;100300.39;1713993;80;21613;-72
2021/01/03 02:26:23;;;;;;;108.70;56.48;;;;;;;3.03;96.82;100301.49;1725175;82;21678;-71
2021/01/03 02:28:49;;;;;;;117.35;57.53;;;;;;;3.13;96.39;100313.47;1727150;81;21223;-72
2021/01/03 02:31:18;;;;;;;119.57;60.38;;;;;;;3.14;96.03;100312.06;1727174;81;21198;-74
2021/01/03 02:33:47;;;;;;;126.58;59.50;;;;;;;3.06;95.70;100307.81;1721002;81;21481;-72
2021/01/03 02:36:27;;;;;;;117.62;57.93;;;;;;;3.06;95.84;100302.59;1723256;81;21153;-73
2021/01/03 02:39:25;;;;;;;117.05;59.25;;;;;;;3.02;95.81;100306.36;1717888;81;21606;-72
2021/01/03 02:41:59;;;;;;;119.33;59.50;;;;;;;2.93;95.92;100301.77;1722522;81;21615;-71
2021/01/03 02:44:25;;;;;;;119.75;59.88;;;;;;;2.93;96.21;100299.16;1718611;82;21682;-71
2021/01/03 02:46:51;;;;;;;110.00;57.90;;;;;;;2.93;96.23;100300.46;1718452;82;21787;-72
2021/01/03 02:49:17;;;;;;;114.28;58.10;;;;;;;2.92;96.06;100298.33;1710427;82;21188;-72
2021/01/03 02:51:42;;;;;;;117.08;56.88;;;;;;;2.79;96.49;100296.99;1720085;82;26702;-71
2021/01/03 02:54:09;;;;;;;103.30;54.88;;;;;;;2.80;96.51;100288.72;1718221;82;21959;-71
2021/01/03 02:56:35;;;;;;;115.85;57.60;;;;;;;2.74;96.75;100287.34;1721222;82;21468;-71
2021/01/03 02:59:01;;;;;;;111.17;56.58;;;;;;;2.71;97.00;100287.55;1717855;81;21163;-71
2021/01/03 03:01:27;;;;;;;112.65;58.05;;;;;;;2.79;96.76;100283.95;1721897;82;28503;-71
2021/01/03 03:03:52;;;;;;;116.15;56.08;;;;;;;2.83;96.59;100276.30;1719536;82;26680;-71
2021/01/03 03:06:18;;;;;;;121.02;57.60;;;;;;;2.88;96.31;100274.20;1715648;82;21330;-71
2021/01/03 03:08:44;;;;;;;110.00;57.70;;;;;;;2.90;96.21;100275.89;1720307;82;22376;-71
2021/01/03 03:11:09;;;;;;;119.07;56.27;;;;;;;2.93;96.06;100271.29;1714236;82;21888;-71
2021/01/03 03:13:35;;;;;;;117.33;58.05;;;;;;;2.86;96.24;100270.87;1715788;82;28337;-71
2021/01/03 03:16:01;;;;;;;108.15;55.98;;;;;;;2.96;98.96;100257.22;1720316;82;27183;-71
2021/01/03 03:18:27;;;;;;;106.80;54.08;;;;;;;2.99;96.64;100255.22;1718999;81;22204;-72
2021/01/03 03:20:53;;;;;;;105.60;53.73;;;;;;;2.93;96.00;100254.81;1709978;82;21221;-73
2021/01/03 03:23:18;;;;;;;120.73;57.93;;;;;;;2.83;96.19;100260.66;1757720;80;21032;-73
2021/01/03 03:25:44;;;;;;;103.47;53.70;;;;;;;2.73;96.44;100258.29;1797886;78;26897;-73
2021/01/03 03:28:10;;;;;;;116.67;56.13;;;;;;;2.80;96.37;100260.03;1759899;80;26651;-73
2021/01/03 03:30:36;;;;;;;116.43;55.97;;;;;;;2.83;96.14;100254.61;1740027;80;21185;-72
2021/01/03 03:33:02;;;;;;;115.63;55.80;;;;;;;2.84;95.93;100251.05;1745240;80;26701;-72
2021/01/03 03:35:31;;;;;;;103.87;48.70;;;;;;;2.67;96.41;100254.78;1745988;80;24262;-72
2021/01/03 03:37:57;;;;;;;110.22;54.63;;;;;;;2.57;96.73;100248.53;1732723;80;21615;-71
2021/01/03 03:40:23;;;;;;;105.78;53.00;;;;;;;2.58;97.69;100249.73;1744344;80;21265;-71
2021/01/03 03:42:49;;;;;;;105.52;52.33;;;;;;;2.57;97.71;100249.84;1740338;80;21336;-72
2021/01/03 03:45:15;;;;;;;103.87;52.23;;;;;;;2.68;97.42;100249.95;1745663;80;22369;-72
2021/01/03 03:47:40;;;;;;;114.10;54.40;;;;;;;2.79;97.04;100253.14;1748506;80;21631;-72
2021/01/03 03:50:08;;;;;;;111.37;55.00;;;;;;;2.92;96.34;100246.61;1745465;80;26682;-72
2021/01/03 03:52:33;;;;;;;102.22;50.12;;;;;;;2.93;95.75;100246.98;1740986;80;21250;-72
2021/01/03 03:54:59;;;;;;;119.00;54.10;;;;;;;2.93;95.53;100253.52;1745356;80;21395;-74
2021/01/03 03:57:25;;;;;;;108.47;52.83;;;;;;;2.86;95.38;100251.31;1741296;80;21653;-71
2021/01/03 03:59:51;;;;;;;105.40;52.43;;;;;;;2.81;95.55;100254.72;1742300;80;21839;-72
2021/01/03 04:02:16;;;;;;;101.02;47.85;;;;;;;2.82;95.60;100245.94;1742902;80;28472;-72
2021/01/03 04:04:43;;;;;;;102.60;51.02;;;;;;;2.78;95.55;100247.10;1748113;80;26713;-71
2021/01/03 04:07:09;;;;;;;125.95;53.20;;;;;;;2.68;95.66;100246.03;1729829;80;21388;-72
2021/01/03 04:09:35;;;;;;;104.90;52.80;;;;;;;2.54;96.27;100240.92;1743359;80;26729;-72
2021/01/03 04:12:01;;;;;;;107.03;53.07;;;;;;;2.52;96.64;100238.42;1741700;80;21625;-73
2021/01/03 04:14:26;;;;;;;103.53;52.85;;;;;;;2.45;97.01;100235.84;1725665;80;27230;-71
2021/01/03 04:16:57;;;;;;;106.58;50.63;;;;;;;2.41;97.17;100228.70;1734124;80;26972;-70
2021/01/03 04:19:23;;;;;;;103.75;51.88;;;;;;;2.41;97.02;100223.48;1734746;80;21232;-72
2021/01/03 04:22:00;;;;;;;97.20;50.30;;;;;;;2.48;96.78;100218.22;1735751;80;21175;-72
2021/01/03 04:24:26;;;;;;;102.22;51.18;;;;;;;2.47;96.77;100219.63;1744174;80;21204;-72
2021/01/03 04:26:56;;;;;;;102.75;49.83;;;;;;;2.40;96.94;100219.69;1741154;80;21217;-73
2021/01/03 04:29:22;;;;;;;104.15;53.15;;;;;;;2.41;97.22;100213.06;1728139;80;21227;-73
2021/01/03 04:31:56;;;;;;;102.33;51.10;;;;;;;2.40;97.07;100223.11;1730979;80;21245;-72
2021/01/03 04:34:22;;;;;;;97.70;47.70;;;;;;;2.33;97.28;100217.93;1740064;80;21068;-73
2021/01/03 04:36:52;;;;;;;93.42;46.95;;;;;;;2.36;97.52;100216.42;1735926;80;21143;-73
2021/01/03 04:39:18;;;;;;;89.32;45.98;;;;;;;2.29;97.58;100214.70;1734502;80;21224;-72
2021/01/03 04:41:43;;;;;;;90.40;49.23;;;;;;;2.34;97.49;100211.80;1748350;80;21541;-72
2021/01/03 04:44:33;;;;;;;101.70;48.00;;;;;;;2.47;97.22;100215.27;1737635;80;21461;-73
2021/01/03 04:47:09;;;;;;;93.80;49.13;;;;;;;2.51;96.97;100221.92;1738372;80;21189;-72
2021/01/03 04:49:40;;;;;;;101.62;51.25;;;;;;;2.53;96.62;100220.99;1712757;80;21222;-72
2021/01/03 04:52:39;;;;;;;100.27;50.12;;;;;;;2.39;97.04;100227.95;1739617;80;21174;-73
2021/01/03 04:55:18;;;;;;;102.78;50.30;;;;;;;2.36;97.24;100220.33;1739839;80;21166;-72
2021/01/03 04:58:17;;;;;;;101.05;49.08;;;;;;;2.30;97.62;100220.73;1731336;80;21181;-73
2021/01/03 05:01:03;;;;;;;101.12;48.90;;;;;;;2.28;97.91;100221.31;1730237;80;21570;-73
2021/01/03 05:03:58;;;;;;;104.85;50.90;;;;;;;2.33;98.21;100229.66;1731848;80;21266;-72
2021/01/03 05:06:27;;;;;;;91.55;47.20;;;;;;;2.57;97.13;100230.29;1721712;81;21679;-72
2021/01/03 05:08:59;;;;;;;90.22;47.93;;;;;;;2.69;96.31;100231.59;1739183;81;21236;-72
2021/01/03 05:11:48;;;;;;;96.82;49.93;;;;;;;2.79;95.85;100224.45;1728414;81;21500;-72
2021/01/03 05:14:36;;;;;;;90.05;47.25;;;;;;;2.71;95.38;100227.58;1739789;80;21213;-72
2021/01/03 05:17:01;;;;;;;94.10;47.48;;;;;;;2.66;95.56;100225.28;1740646;80;21123;-71
2021/01/03 05:19:27;;;;;;;92.53;48.15;;;;;;;2.57;96.01;100228.98;1743776;80;27821;-72
2021/01/03 05:21:55;;;;;;;91.42;48.65;;;;;;;2.50;96.12;100235.91;1753290;80;26345;-72
2021/01/03 05:24:24;;;;;;;87.45;48.92;;;;;;;2.46;96.31;100241.43;1744535;80;21669;-73
2021/01/03 05:26:50;;;;;;;86.00;47.08;;;;;;;2.44;96.56;100242.84;1748227;80;21164;-72
2021/01/03 05:29:28;;;;;;;91.93;47.50;;;;;;;2.49;96.57;100244.66;1713289;81;22858;-72
2021/01/03 05:32:02;;;;;;;85.83;44.55;;;;;;;2.41;96.42;100235.66;1742185;81;22345;-71
2021/01/03 05:34:39;;;;;;;84.05;43.40;;;;;;;2.41;96.45;100239.12;1731454;81;21239;-72
2021/01/03 05:37:14;;;;;;;82.47;43.70;;;;;;;2.39;96.26;100239.67;1729460;82;22447;-71
2021/01/03 05:39:40;;;;;;;92.95;46.95;;;;;;;2.43;96.18;100247.67;1766262;80;21187;-71
2021/01/03 05:42:20;;;;;;;90.03;47.30;;;;;;;2.38;96.27;100249.75;1766217;79;20953;-71
2021/01/03 05:45:11;;;;;;;83.25;43.35;;;;;;;2.31;96.51;100241.96;1764709;81;21571;-71
2021/01/03 05:47:43;;;;;;;95.17;48.15;;;;;;;2.28;96.56;100243.47;1765181;80;21177;-72
2021/01/03 05:50:36;;;;;;;85.15;46.58;;;;;;;2.23;96.65;100231.22;1758887;79;21160;-72
2021/01/03 05:53:28;;;;;;;88.05;46.73;;;;;;;2.23;97.05;100240.34;1724128;82;21155;-72
2021/01/03 05:55:59;;;;;;;86.70;45.40;;;;;;;2.22;96.83;100239.95;1721008;81;21164;-72
2021/01/03 05:58:31;;;;;;;92.00;45.65;;;;;;;2.22;96.79;100236.05;1758491;79;21627;-72
2021/01/03 06:01:19;;;;;;;88.70;46.30;;;;;;;2.15;96.85;100218.21;1766272;78;21145;-72
2021/01/03 06:04:01;;;;;;;89.87;45.28;;;;;;;2.10;97.18;100218.17;1710978;82;21220;-72
2021/01/03 06:06:52;;;;;;;84.87;43.78;;;;;;;2.09;97.32;100223.83;1785128;78;21662;-72
2021/01/03 06:09:21;;;;;;;91.90;46.30;;;;;;;2.07;97.56;100228.30;1796790;78;21686;-73
2021/01/03 06:12:03;;;;;;;94.58;45.73;;;;;;;2.07;97.71;100229.61;1784966;78;21232;-73
2021/01/03 06:14:29;;;;;;;80.40;43.83;;;;;;;2.08;97.81;100232.59;1795129;78;21548;-72
2021/01/03 06:16:59;;;;;;;82.07;43.10;;;;;;;2.14;97.66;100237.41;1791625;78;21592;-72
2021/01/03 06:19:46;;;;;;;87.33;44.25;;;;;;;2.22;97.40;100246.47;1776413;78;21174;-72
2021/01/03 06:22:43;;;;;;;87.00;44.58;;;;;;;2.24;97.28;100235.50;1786280;78;21445;-73
2021/01/03 06:25:14;;;;;;;87.35;44.38;;;;;;;2.23;97.66;100233.34;1780209;78;21135;-72
2021/01/03 06:27:40;;;;;;;90.30;44.53;;;;;;;2.38;97.22;100226.30;1789897;78;21126;-72
2021/01/03 06:30:09;;;;;;;90.50;46.60;;;;;;;2.66;96.23;100225.77;1792951;78;21245;-71
2021/01/03 06:32:43;;;;;;;83.40;43.35;;;;;;;2.61;95.69;100226.52;1794609;78;21240;-71
2021/01/03 06:35:41;;;;;;;87.85;43.52;;;;;;;2.55;96.04;100232.14;1776762;78;21239;-71
2021/01/03 06:38:36;;;;;;;85.12;42.43;;;;;;;2.51;95.81;100234.95;1789522;78;21201;-71
2021/01/03 06:41:15;;;;;;;75.72;40.33;;;;;;;2.43;96.28;100222.91;1796997;78;21142;-72
2021/01/03 06:44:04;;;;;;;72.03;39.18;;;;;;;2.35;96.49;100223.89;1794492;78;21357;-72
2021/01/03 06:46:50;;;;;;;74.58;38.98;;;;;;;2.43;96.38;100216.39;1793019;78;21165;-72
2021/01/03 06:49:44;;;;;;;71.35;39.13;;;;;;;2.49;96.17;100213.37;1789017;78;21196;-70
2021/01/03 06:52:24;;;;;;;74.70;38.33;;;;;;;2.47;95.93;100213.96;1790521;78;21610;-71
2021/01/03 06:55:29;;;;;;;66.62;37.23;;;;;;;2.50;95.88;100220.27;1791189;78;21070;-71
2021/01/03 06:58:12;;;;;;;65.78;36.35;;;;;;;2.48;95.90;100213.00;1794337;78;21290;-71
2021/01/03 07:00:45;;;;;;;71.50;38.85;;;;;;;2.39;96.38;100214.09;1798027;78;21657;-72
2021/01/03 07:03:23;;;;;;;70.12;36.90;;;;;;;2.39;96.59;100218.83;1790881;78;21630;-72
2021/01/03 07:05:57;;;;;;;70.00;35.68;;;;;;;2.47;96.23;100223.08;1786502;78;26922;-71
2021/01/03 07:08:23;;;;;;;66.05;34.98;;;;;;;2.51;95.89;100219.31;1784477;78;21234;-73
2021/01/03 07:10:49;;;;;;;61.97;35.97;;;;;;;2.50;95.68;100233.30;1743841;80;21293;-73
2021/01/03 07:13:34;;;;;;;70.20;35.67;;;;;;;2.54;95.74;100233.09;1730514;81;22351;-72
2021/01/03 07:16:01;;;;;;;67.00;35.68;;;;;;;2.63;95.64;100241.13;1735208;82;21724;-72
2021/01/03 07:18:32;;;;;;;67.50;36.85;;;;;;;2.65;95.48;100251.45;1754465;80;22078;-73
2021/01/03 07:21:13;;;;;;;65.25;35.68;;;;;;;2.63;95.34;100258.08;1756807;80;21282;-72
2021/01/03 07:23:42;;;;;;;68.60;34.90;;;;;;;2.65;95.30;100257.97;1756131;80;22143;-73
2021/01/03 07:26:31;;;;;;;60.65;33.05;;;;;;;2.59;95.18;100259.69;1799772;78;22056;-73
2021/01/03 07:29:07;;;;;;;63.35;34.45;;;;;;;2.62;95.14;100269.91;1799673;78;21011;-73
2021/01/03 07:31:53;;;;;;;65.20;35.33;;;;;;;2.69;95.23;100264.67;1802771;78;21200;-72
2021/01/03 07:34:29;;;;;;;64.72;34.98;;;;;;;2.56;95.11;100255.98;1775545;78;21212;-73
2021/01/03 07:37:14;;;;;;;67.65;35.70;;;;;;;2.60;95.31;100257.45;1798828;78;21192;-73
2021/01/03 07:40:05;;;;;;;64.20;34.38;;;;;;;2.64;95.14;100257.59;1804903;78;21161;-72
2021/01/03 07:42:45;;;;;;;59.90;32.83;;;;;;;2.56;95.42;100253.38;1796137;78;21198;-73
2021/01/03 07:45:23;;;;;;;64.40;35.30;;;;;;;2.56;95.50;100254.67;1799305;78;21123;-73
2021/01/03 07:47:53;;;;;;;66.50;34.75;;;;;;;2.54;95.66;100259.99;1802193;78;21165;-73
2021/01/03 07:50:34;;;;;;;69.72;37.35;;;;;;;2.56;95.99;100266.41;1789882;78;21174;-74
2021/01/03 07:53:25;;;;;;;64.87;35.85;;;;;;;2.73;95.15;100260.89;1801184;78;21134;-72
2021/01/03 07:55:52;;;;;;;65.80;35.15;;;;;;;2.87;94.57;100253.00;1790444;78;21214;-72
2021/01/03 07:58:21;;;;;;;64.82;36.23;;;;;;;3.00;94.16;100240.42;1795598;78;21181;-71
2021/01/03 08:00:54;;;;;;;61.65;32.23;;;;;;;2.94;93.59;100231.23;1798150;78;21173;-70
2021/01/03 08:03:23;;;;;;;63.40;33.13;;;;;;;2.99;93.52;100234.83;1802182;78;21237;-71
2021/01/03 08:05:49;;;;;;;56.37;34.05;;;;;;;2.96;93.53;100225.91;1794126;78;21658;-72
2021/01/03 08:08:23;;;;;;;58.80;32.03;;;;;;;2.93;93.77;100227.42;1800178;78;20970;-72
2021/01/03 08:10:51;;;;;;;63.20;34.98;;;;;;;2.83;94.08;100233.75;1795481;78;21154;-71
2021/01/03 08:13:25;;;;;;;58.98;32.83;;;;;;;2.84;94.15;100242.77;1796154;78;21216;-72
2021/01/03 08:15:55;;;;;;;56.20;33.65;;;;;;;2.90;94.07;100244.59;1794489;78;21261;-72
2021/01/03 08:18:19;;;;;;;;;;;;;;;2.91;94.25;100247.58;1777715;78;21521;-72
2021/01/03 08:20:45;;;;;;;57.93;29.63;;;;;;;2.80;94.23;100247.82;1766398;80;20244;-71
2021/01/03 08:23:29;;;;;;;61.00;31.87;;;;;;;2.77;94.51;100241.98;1768031;80;21133;-71
2021/01/03 08:26:09;;;;;;;49.08;31.10;;;;;;;2.79;94.66;100242.23;1768332;80;21098;-71
2021/01/03 08:28:37;;;;;;;61.05;32.53;;;;;;;2.88;94.46;100242.91;1762710;80;21558;-71
2021/01/03 08:31:03;;;;;;;60.70;34.90;;;;;;;2.92;94.24;100238.34;1771222;79;21142;-70
2021/01/03 08:33:37;;;;;;;58.83;32.93;;;;;;;2.85;94.29;100253.55;1771565;80;21641;-71
2021/01/03 08:36:26;;;;;;;61.10;35.05;;;;;;;2.92;94.42;100258.35;1768051;80;21158;-71
2021/01/03 08:38:53;;;;;;;56.10;32.13;;;;;;;2.83;94.56;100252.83;1755192;80;21164;-71
2021/01/03 08:41:23;;;;;;;57.53;31.87;;;;;;;2.77;94.82;100250.64;1771264;79;21545;-71
2021/01/03 08:43:49;;;;;;;61.70;34.40;;;;;;;2.87;94.71;100256.91;1767675;80;21184;-71
2021/01/03 08:46:18;;;;;;;57.27;33.77;;;;;;;2.85;94.78;100260.07;1770871;79;21092;-71
2021/01/03 08:48:44;;;;;;;59.55;33.45;;;;;;;2.87;94.32;100256.91;1777466;79;21677;-71
2021/01/03 08:51:13;;;;;;;50.38;32.08;;;;;;;2.93;94.33;100260.03;1767539;79;27993;-71
2021/01/03 08:53:39;;;;;;;60.38;34.73;;;;;;;2.90;94.44;100253.23;1773127;79;21614;-72
2021/01/03 08:56:18;;;;;;;57.33;32.95;;;;;;;2.91;94.65;100254.09;1769188;79;21609;-72
2021/01/03 08:58:46;;;;;;;60.60;33.88;;;;;;;2.86;94.81;100253.92;1772073;80;21176;-72
2021/01/03 09:01:19;;;;;;;;;;;;;;;2.87;94.86;100256.91;1778566;80;21601;-72
2021/01/03 09:03:45;;;;;;;62.05;32.48;;;;;;;2.81;95.18;100246.89;1768191;79;20250;-71
2021/01/03 09:06:13;;;;;;;58.67;33.20;;;;;;;2.80;95.30;100248.30;1764376;80;21445;-71
2021/01/03 09:08:42;;;;;;;61.23;35.17;;;;;;;2.85;95.24;100244.42;1772734;79;21204;-72
2021/01/03 09:11:28;;;;;;;56.30;32.98;;;;;;;2.77;95.48;100241.51;1750259;80;33760;-72
2021/01/03 09:14:25;;;;;;;56.42;33.18;;;;;;;2.84;95.34;100246.69;1766018;80;21148;-71
2021/01/03 09:17:17;;;;;;;58.85;33.92;;;;;;;2.95;95.29;100250.31;1764418;79;21121;-72
2021/01/03 09:19:59;;;;;;;60.28;34.18;;;;;;;3.12;94.79;100240.03;1792258;78;21205;-72
2021/01/03 09:22:37;;;;;;;61.90;33.88;;;;;;;3.24;94.16;100238.70;1791085;78;21246;-72
2021/01/03 09:25:17;;;;;;;55.52;33.48;;;;;;;3.45;93.08;100235.55;1793041;78;21172;-71
2021/01/03 09:27:43;;;;;;;59.03;34.58;;;;;;;3.35;92.83;100223.59;1793844;78;21751;-72
2021/01/03 09:30:26;;;;;;;51.95;31.52;;;;;;;3.27;93.59;100226.41;1791142;78;26729;-71
2021/01/03 09:33:12;;;;;;;59.15;33.28;;;;;;;3.19;93.66;100221.72;1787095;78;21615;-71
2021/01/03 09:36:11;;;;;;;54.90;33.13;;;;;;;3.27;93.67;100221.19;1779962;78;21230;-71
2021/01/03 09:38:46;;;;;;;55.30;32.80;;;;;;;3.29;93.26;100216.68;1791390;78;21187;-71
2021/01/03 09:41:41;;;;;;;56.55;33.80;;;;;;;3.30;93.53;100217.88;1786839;78;21118;-70
2021/01/03 09:44:46;;;;;;;55.38;33.13;;;;;;;3.32;93.49;100211.25;1792596;78;21193;-70
2021/01/03 09:47:14;;;;;;;60.15;34.03;;;;;;;3.31;93.51;100206.95;1793154;78;21460;-71
2021/01/03 09:49:45;;;;;;;53.63;32.50;;;;;;;3.29;93.71;100210.16;1787929;78;21490;-71
2021/01/03 09:52:35;;;;;;;55.83;33.48;;;;;;;3.27;93.61;100213.35;1788207;78;21165;-71
2021/01/03 09:55:11;;;;;;;56.92;32.85;;;;;;;3.19;93.90;100207.37;1787813;78;21132;-71
2021/01/03 09:58:05;;;;;;;57.25;33.95;;;;;;;3.22;93.96;100217.11;1789733;78;21199;-71
2021/01/03 10:00:54;;;;;;;52.53;32.00;;;;;;;3.32;94.03;100212.06;1789248;78;21641;-71
2021/01/03 10:03:43;;;;;;;58.98;33.38;;;;;;;3.38;93.84;100212.12;1786533;78;21178;-73
2021/01/03 10:06:24;;;;;;;56.65;32.95;;;;;;;3.38;93.90;100213.42;1791892;78;21193;-70
2021/01/03 10:09:07;;;;;;;57.50;33.65;;;;;;;3.34;93.67;100214.57;1792967;78;21182;-72
2021/01/03 10:11:32;;;;;;;51.00;31.68;;;;;;;3.45;93.66;100209.45;1793966;78;21137;-71
2021/01/03 10:14:04;;;;;;;57.98;32.60;;;;;;;3.49;93.53;100210.05;1785309;78;21543;-72
2021/01/03 10:16:30;;;;;;;52.73;33.02;;;;;;;3.55;93.47;100200.00;1794137;78;21513;-71
2021/01/03 10:18:56;;;;;;;64.97;34.92;;;;;;;3.53;93.49;100189.32;1794565;78;21188;-72
2021/01/03 10:21:38;;;;;;;56.25;33.85;;;;;;;3.44;93.52;100189.50;1803643;78;27831;-72
2021/01/03 10:24:20;;;;;;;55.33;33.92;;;;;;;3.48;93.56;100185.73;1801179;78;21161;-70
2021/01/03 10:26:51;;;;;;;58.75;34.27;;;;;;;3.43;93.68;100190.91;1800033;78;21305;-72
2021/01/03 10:29:17;;;;;;;54.98;34.35;;;;;;;3.40;93.90;100195.87;1751809;78;21650;-74
2021/01/03 10:31:46;;;;;;;58.63;35.00;;;;;;;3.51;93.87;100184.66;1798429;78;23782;-73
2021/01/03 10:34:17;;;;;;;55.28;34.33;;;;;;;3.52;93.67;100194.99;1791761;78;21190;-71
2021/01/03 10:36:42;;;;;;;52.98;32.55;;;;;;;3.61;93.47;100200.52;1780759;78;21217;-71
2021/01/03 10:39:09;;;;;;;59.95;34.48;;;;;;;3.63;93.13;100190.80;1798579;78;21676;-71
2021/01/03 10:41:36;;;;;;;57.00;35.20;;;;;;;3.65;93.32;100195.42;1799388;78;21217;-71
2021/01/03 10:44:02;;;;;;;61.75;36.35;;;;;;;3.69;93.39;100192.96;1808051;78;21193;-72
2021/01/03 10:46:28;;;;;;;58.83;35.45;;;;;;;4.02;91.81;100191.44;1801837;78;21631;-72
2021/01/03 10:48:54;;;;;;;61.58;36.45;;;;;;;4.16;91.11;100186.02;1803146;78;27166;-71
2021/01/03 10:51:29;;;;;;;58.33;34.50;;;;;;;4.15;90.77;100181.77;1798746;78;21914;-71
2021/01/03 10:53:54;;;;;;;57.60;33.85;;;;;;;4.15;90.84;100181.77;1786958;78;21602;-72
2021/01/03 10:56:20;;;;;;;55.93;34.27;;;;;;;4.17;90.52;100182.47;1802711;78;26241;-71
2021/01/03 10:58:46;;;;;;;52.93;34.03;;;;;;;4.05;91.07;100180.77;1799475;78;28386;-70
2021/01/03 11:01:12;;;;;;;56.70;34.08;;;;;;;4.14;91.27;100180.91;1800199;78;26722;-71
2021/01/03 11:03:37;;;;;;;48.60;31.48;;;;;;;4.06;91.13;100182.44;1802943;78;22853;-71
2021/01/03 11:06:04;;;;;;;56.60;34.23;;;;;;;4.03;91.19;100177.45;1786111;78;25678;-70
2021/01/03 11:08:29;;;;;;;60.40;34.75;;;;;;;3.97;91.77;100170.05;1768569;78;21219;-71
2021/01/03 11:10:55;;;;;;;47.30;31.90;;;;;;;4.05;91.64;100165.09;1766495;78;28374;-70
2021/01/03 11:13:21;;;;;;;48.28;31.85;;;;;;;4.02;91.44;100160.09;1796354;78;26760;-70
2021/01/03 11:15:48;;;;;;;58.45;33.23;;;;;;;4.06;91.31;100162.36;1800633;78;21850;-71
2021/01/03 11:18:14;;;;;;;50.73;31.62;;;;;;;4.11;91.14;100165.94;1800350;78;28336;-71
2021/01/03 11:20:40;;;;;;;46.67;31.13;;;;;;;4.19;91.28;100175.83;1794056;77;24702;-72
2021/01/03 11:23:06;;;;;;;50.17;30.62;;;;;;;4.16;90.94;100186.02;1795637;78;21167;-73
2021/01/03 11:25:31;;;;;;;47.38;31.52;;;;;;;4.20;90.77;100187.47;1805264;78;27204;-72
2021/01/03 11:27:57;;;;;;;49.77;32.95;;;;;;;4.16;90.83;100188.64;1795847;78;22246;-73
2021/01/03 11:30:23;;;;;;;59.50;33.47;;;;;;;4.25;90.96;100187.13;1793700;78;25201;-70
2021/01/03 11:32:49;;;;;;;51.48;32.35;;;;;;;4.10;90.68;100187.78;1802501;78;24544;-72
2021/01/03 11:35:15;;;;;;;52.43;33.70;;;;;;;4.10;91.09;100187.78;1796913;78;28352;-72
2021/01/03 11:37:41;;;;;;;53.38;32.45;;;;;;;4.13;91.19;100184.94;1797243;78;21551;-70
2021/01/03 11:40:08;;;;;;;48.87;31.75;;;;;;;4.14;91.02;100193.98;1801152;78;21593;-71